createdAt,value
2023-03-22T00:00:37.057Z,515.00
2023-03-22T00:01:36.730Z,514.00
2023-03-22T00:02:36.760Z,513.00
2023-03-22T00:03:36.835Z,511.00
2023-03-22T00:04:36.837Z,509.00
2023-03-22T00:05:36.905Z,508.00
2023-03-22T00:06:36.913Z,508.00
2023-03-22T00:07:36.950Z,509.00
2023-03-22T00:08:36.979Z,505.00
2023-03-22T00:09:37.030Z,505.00
2023-03-22T00:10:37.408Z,506.00
2023-03-22T00:11:37.110Z,507.00
2023-03-22T00:12:37.143Z,508.00
2023-03-22T00:13:37.246Z,507.00
2023-03-22T00:14:37.289Z,506.00
2023-03-22T00:15:37.294Z,505.00
2023-03-22T00:16:37.380Z,505.00
2023-03-22T00:17:37.398Z,507.00
2023-03-22T00:18:37.445Z,508.00
2023-03-22T00:19:37.475Z,506.00
2023-03-22T00:20:38.030Z,506.00
2023-03-22T00:21:37.593Z,505.00
2023-03-22T00:22:37.637Z,503.00
2023-03-22T00:23:37.695Z,504.00
2023-03-22T00:24:37.738Z,505.00
2023-03-22T00:25:37.744Z,506.00
2023-03-22T00:26:37.874Z,505.00
2023-03-22T00:27:38.716Z,503.00
2023-03-22T00:28:37.925Z,501.00
2023-03-22T00:29:37.964Z,500.00
2023-03-22T00:30:38.354Z,502.00
2023-03-22T00:31:38.172Z,502.00
2023-03-22T00:32:38.085Z,503.00
2023-03-22T00:33:38.157Z,502.00
2023-03-22T00:34:38.205Z,500.00
2023-03-22T00:35:38.267Z,500.00
2023-03-22T00:36:38.290Z,499.00
2023-03-22T00:37:38.334Z,500.00
2023-03-22T00:38:45.385Z,500.00
2023-03-22T00:39:39.356Z,500.00
2023-03-22T00:40:38.629Z,502.00
2023-03-22T00:41:38.350Z,504.00
2023-03-22T00:42:38.305Z,504.00
2023-03-22T00:43:38.333Z,506.00
2023-03-22T00:44:38.331Z,506.00
2023-03-22T00:45:38.307Z,506.00
2023-03-22T00:46:38.327Z,508.00
2023-03-22T00:47:38.273Z,506.00
2023-03-22T00:48:38.304Z,508.00
2023-03-22T00:49:38.258Z,509.00
2023-03-22T00:50:38.442Z,508.00
2023-03-22T00:51:38.335Z,507.00
2023-03-22T00:52:38.372Z,508.00
2023-03-22T00:53:41.120Z,509.00
2023-03-22T00:54:38.431Z,511.00
2023-03-22T00:55:38.418Z,511.00
2023-03-22T00:56:38.449Z,511.00
2023-03-22T00:57:38.433Z,509.00
2023-03-22T00:58:38.386Z,508.00
2023-03-22T00:59:38.414Z,509.00
2023-03-22T01:00:38.661Z,509.00
2023-03-22T01:01:38.420Z,510.00
2023-03-22T01:02:38.343Z,512.00
2023-03-22T01:03:38.374Z,515.00
2023-03-22T01:04:38.359Z,512.00
2023-03-22T01:05:38.357Z,514.00
2023-03-22T01:06:38.305Z,512.00
2023-03-22T01:07:38.335Z,511.00
2023-03-22T01:08:38.317Z,511.00
2023-03-22T01:09:38.291Z,511.00
2023-03-22T01:10:38.631Z,510.00
2023-03-22T01:11:38.284Z,513.00
2023-03-22T01:12:38.294Z,513.00
2023-03-22T01:13:38.290Z,512.00
2023-03-22T01:14:38.268Z,512.00
2023-03-22T01:15:38.269Z,511.00
2023-03-22T01:16:38.280Z,512.00
2023-03-22T01:17:38.279Z,510.00
2023-03-22T01:18:38.252Z,510.00
2023-03-22T01:19:38.261Z,511.00
2023-03-22T01:20:38.637Z,511.00
2023-03-22T01:21:38.309Z,510.00
2023-03-22T01:22:38.393Z,509.00
2023-03-22T01:23:38.414Z,509.00
2023-03-22T01:24:38.504Z,508.00
2023-03-22T01:25:38.542Z,507.00
2023-03-22T01:26:38.580Z,509.00
2023-03-22T01:27:38.695Z,511.00
2023-03-22T01:28:38.703Z,511.00
2023-03-22T01:29:38.730Z,512.00
2023-03-22T01:30:39.075Z,515.00
2023-03-22T01:31:38.862Z,513.00
2023-03-22T01:32:38.900Z,513.00
2023-03-22T01:33:38.974Z,512.00
2023-03-22T01:34:39.011Z,511.00
2023-03-22T01:35:39.121Z,509.00
2023-03-22T01:36:39.141Z,511.00
2023-03-22T01:37:39.175Z,509.00
2023-03-22T01:38:39.246Z,508.00
2023-03-22T01:39:39.321Z,506.00
2023-03-22T01:40:39.678Z,505.00
2023-03-22T01:41:39.430Z,505.00
2023-03-22T01:42:39.494Z,505.00
2023-03-22T01:43:39.559Z,506.00
2023-03-22T01:44:39.617Z,506.00
2023-03-22T01:45:39.684Z,506.00
2023-03-22T01:46:39.828Z,506.00
2023-03-22T01:47:39.758Z,505.00
2023-03-22T01:48:39.877Z,504.00
2023-03-22T01:49:39.882Z,504.00
2023-03-22T01:50:40.270Z,504.00
2023-03-22T01:51:40.816Z,503.00
2023-03-22T01:52:40.037Z,503.00
2023-03-22T01:53:40.090Z,504.00
2023-03-22T01:54:40.185Z,504.00
2023-03-22T01:55:40.220Z,505.00
2023-03-22T01:56:40.256Z,507.00
2023-03-22T01:57:40.332Z,507.00
2023-03-22T01:58:40.359Z,508.00
2023-03-22T01:59:40.448Z,509.00
2023-03-22T02:00:40.829Z,511.00
2023-03-22T02:01:40.621Z,512.00
2023-03-22T02:02:40.649Z,511.00
2023-03-22T02:03:40.682Z,511.00
2023-03-22T02:04:40.723Z,512.00
2023-03-22T02:05:40.767Z,512.00
2023-03-22T02:06:40.839Z,512.00
2023-03-22T02:07:40.913Z,511.00
2023-03-22T02:08:40.982Z,511.00
2023-03-22T02:09:41.027Z,512.00
2023-03-22T02:10:41.297Z,510.00
2023-03-22T02:11:41.129Z,509.00
2023-03-22T02:12:41.204Z,508.00
2023-03-22T02:13:41.264Z,507.00
2023-03-22T02:14:41.322Z,508.00
2023-03-22T02:15:41.418Z,509.00
2023-03-22T02:16:41.437Z,507.00
2023-03-22T02:17:41.483Z,506.00
2023-03-22T02:18:41.557Z,505.00
2023-03-22T02:19:41.604Z,503.00
2023-03-22T02:20:41.858Z,503.00
2023-03-22T02:21:41.761Z,502.00
2023-03-22T02:22:41.787Z,502.00
2023-03-22T02:23:41.859Z,500.00
2023-03-22T02:24:43.934Z,501.00
2023-03-22T02:25:41.994Z,501.00
2023-03-22T02:26:42.033Z,502.00
2023-03-22T03:05:44.303Z,501.00
2023-03-22T03:06:44.374Z,501.00
2023-03-22T03:07:44.373Z,501.00
2023-03-22T03:08:44.436Z,502.00
2023-03-22T03:09:44.439Z,502.00
2023-03-22T03:10:44.488Z,501.00
2023-03-22T03:11:44.505Z,501.00
2023-03-22T03:12:44.536Z,499.00
2023-03-22T03:13:44.593Z,498.00
2023-03-22T03:14:44.602Z,499.00
2023-03-22T03:15:44.592Z,498.00
2023-03-22T03:16:44.680Z,498.00
2023-03-22T03:17:44.616Z,499.00
2023-03-22T03:18:44.640Z,499.00
2023-03-22T03:19:44.628Z,500.00
2023-03-22T03:20:44.673Z,498.00
2023-03-22T03:21:44.677Z,499.00
2023-03-22T03:22:44.654Z,500.00
2023-03-22T03:23:44.674Z,496.00
2023-03-22T03:24:44.681Z,494.00
2023-03-22T03:25:44.680Z,494.00
2023-03-22T03:26:44.669Z,496.00
2023-03-22T03:27:44.677Z,497.00
2023-03-22T03:28:44.673Z,499.00
2023-03-22T03:29:44.680Z,500.00
2023-03-22T03:30:44.670Z,501.00
2023-03-22T03:31:44.687Z,502.00
2023-03-22T03:32:44.659Z,502.00
2023-03-22T03:33:44.666Z,501.00
2023-03-22T03:34:44.661Z,502.00
2023-03-22T03:35:44.646Z,502.00
2023-03-22T03:36:44.681Z,502.00
2023-03-22T03:37:44.731Z,504.00
2023-03-22T03:38:44.703Z,505.00
2023-03-22T03:39:44.734Z,507.00
2023-03-22T03:40:44.734Z,506.00
2023-03-22T03:41:44.758Z,508.00
2023-03-22T03:42:44.775Z,507.00
2023-03-22T03:43:44.807Z,508.00
2023-03-22T03:44:44.832Z,509.00
2023-03-22T03:45:44.938Z,509.00
2023-03-22T03:46:44.925Z,508.00
2023-03-22T03:47:44.999Z,507.00
2023-03-22T03:48:44.998Z,506.00
2023-03-22T03:49:45.057Z,504.00
2023-03-22T03:50:45.052Z,502.00
2023-03-22T03:51:45.115Z,502.00
2023-03-22T03:52:45.159Z,503.00
2023-03-22T03:53:45.238Z,502.00
2023-03-22T03:54:45.288Z,503.00
2023-03-22T03:55:45.336Z,504.00
2023-03-22T03:56:45.432Z,503.00
2023-03-22T03:57:45.492Z,503.00
2023-03-22T03:58:45.558Z,506.00
2023-03-22T03:59:45.634Z,507.00
2023-03-22T04:00:45.693Z,506.00
2023-03-22T04:01:45.723Z,506.00
2023-03-22T04:02:45.772Z,507.00
2023-03-22T04:03:45.833Z,507.00
2023-03-22T04:04:45.962Z,508.00
2023-03-22T04:05:46.000Z,509.00
2023-03-22T04:06:46.047Z,509.00
2023-03-22T04:07:46.112Z,506.00
2023-03-22T04:08:46.146Z,506.00
2023-03-22T04:09:46.233Z,505.00
2023-03-22T04:10:46.306Z,503.00
2023-03-22T04:11:46.341Z,505.00
2023-03-22T04:12:46.394Z,505.00
2023-03-22T04:13:46.431Z,504.00
2023-03-22T04:14:46.516Z,506.00
2023-03-22T04:15:46.586Z,506.00
2023-03-22T04:16:46.651Z,507.00
2023-03-22T04:17:46.819Z,507.00
2023-03-22T04:18:46.740Z,508.00
2023-03-22T04:19:46.780Z,507.00
2023-03-22T04:20:46.835Z,508.00
2023-03-22T04:21:46.901Z,508.00
2023-03-22T04:22:46.994Z,510.00
2023-03-22T04:23:47.018Z,511.00
2023-03-22T04:24:47.056Z,509.00
2023-03-22T04:25:47.122Z,510.00
2023-03-22T04:26:47.165Z,511.00
2023-03-22T04:27:47.248Z,512.00
2023-03-22T04:28:47.260Z,512.00
2023-03-22T04:29:47.324Z,513.00
2023-03-22T04:30:47.404Z,512.00
2023-03-22T04:31:47.423Z,511.00
2023-03-22T04:32:47.534Z,511.00
2023-03-22T04:33:47.542Z,511.00
2023-03-22T04:34:47.605Z,510.00
2023-03-22T04:35:47.690Z,511.00
2023-03-22T04:36:47.695Z,513.00
2023-03-22T04:37:47.765Z,512.00
2023-03-22T04:38:47.828Z,512.00
2023-03-22T04:39:47.886Z,513.00
2023-03-22T04:40:47.967Z,512.00
2023-03-22T04:41:48.025Z,514.00
2023-03-22T04:42:48.048Z,511.00
2023-03-22T04:43:48.094Z,508.00
2023-03-22T04:44:48.191Z,509.00
2023-03-22T04:45:48.197Z,508.00
2023-03-22T04:46:48.293Z,507.00
2023-03-22T04:47:48.422Z,508.00
2023-03-22T04:48:48.381Z,508.00
2023-03-22T04:49:48.457Z,508.00
2023-03-22T04:50:48.503Z,509.00
2023-03-22T04:51:48.589Z,510.00
2023-03-22T04:52:48.629Z,509.00
2023-03-22T04:53:48.716Z,509.00
2023-03-22T04:54:48.793Z,508.00
2023-03-22T04:55:48.813Z,507.00
2023-03-22T04:56:48.866Z,506.00
2023-03-22T04:57:48.940Z,507.00
2023-03-22T04:58:48.982Z,508.00
2023-03-22T04:59:49.097Z,507.00
2023-03-22T05:00:49.114Z,507.00
2023-03-22T05:01:49.306Z,506.00
2023-03-22T05:02:49.281Z,507.00
2023-03-22T05:03:49.329Z,509.00
2023-03-22T05:04:49.411Z,509.00
2023-03-22T06:00:57.724Z,508.00
2023-03-22T07:25:50.732Z,1400.00
2023-03-22T09:36:56.234Z,803.00
2023-03-22T10:15:54.590Z,455.00
2023-03-22T11:07:54.571Z,781.00
2023-03-22T11:08:54.331Z,786.00
2023-03-22T11:09:54.409Z,792.00
2023-03-22T11:10:54.482Z,797.00
2023-03-22T11:11:54.632Z,797.00
2023-03-22T11:12:54.579Z,796.00
2023-03-22T11:13:54.585Z,798.00
2023-03-22T11:14:54.634Z,802.00
2023-03-22T11:15:54.752Z,801.00
2023-03-22T11:16:54.732Z,799.00
2023-03-22T11:17:54.775Z,797.00
2023-03-22T11:18:54.824Z,795.00
2023-03-22T11:19:54.938Z,795.00
2023-03-22T11:20:54.905Z,792.00
2023-03-22T11:21:54.935Z,793.00
2023-03-22T11:22:55.152Z,798.00
2023-03-22T11:23:55.026Z,802.00
2023-03-22T11:24:55.050Z,804.00
2023-03-22T11:25:55.090Z,803.00
2023-03-22T11:26:55.137Z,804.00
2023-03-22T11:27:55.595Z,807.00
2023-03-22T11:28:55.173Z,806.00
2023-03-22T11:29:55.214Z,809.00
2023-03-22T11:30:55.265Z,813.00
2023-03-22T11:31:56.203Z,817.00
2023-03-22T11:32:55.613Z,819.00
2023-03-22T11:33:55.357Z,819.00
2023-03-22T11:34:55.351Z,821.00
2023-03-22T11:35:55.435Z,824.00
2023-03-22T11:36:55.529Z,888.00
2023-03-22T11:37:55.544Z,750.00
2023-03-22T11:38:55.486Z,714.00
2023-03-22T11:39:55.555Z,665.00
2023-03-22T11:40:55.584Z,671.00
2023-03-22T11:41:55.696Z,668.00
2023-03-22T11:42:56.068Z,662.00
2023-03-22T11:43:55.763Z,654.00
2023-03-22T11:44:55.813Z,647.00
2023-03-22T11:45:55.937Z,640.00
2023-03-22T11:46:55.922Z,632.00
2023-03-22T11:47:56.233Z,622.00
2023-03-22T11:48:56.383Z,614.00
2023-03-22T11:49:56.069Z,610.00
2023-03-22T11:50:56.162Z,609.00
2023-03-22T11:51:56.189Z,606.00
2023-03-22T11:52:56.267Z,603.00
2023-03-22T11:53:56.271Z,601.00
2023-03-22T11:54:56.279Z,599.00
2023-03-22T11:55:56.318Z,599.00
2023-03-22T11:56:56.363Z,596.00
2023-03-22T11:57:56.562Z,596.00
2023-03-22T11:58:56.575Z,595.00
2023-03-22T12:06:56.617Z,589.00
2023-03-22T12:07:56.628Z,585.00
2023-03-22T12:08:56.701Z,585.00
2023-03-22T12:09:58.384Z,587.00
2023-03-22T12:10:56.660Z,586.00
2023-03-22T12:11:56.729Z,586.00
2023-03-22T12:12:56.705Z,586.00
2023-03-22T12:13:57.162Z,587.00
2023-03-22T12:14:56.769Z,587.00
2023-03-22T12:15:57.015Z,586.00
2023-03-22T12:16:56.785Z,586.00
2023-03-22T12:17:56.907Z,584.00
2023-03-22T12:18:56.998Z,584.00
2023-03-22T12:19:56.851Z,584.00
2023-03-22T12:20:56.922Z,582.00
2023-03-22T12:21:56.833Z,580.00
2023-03-22T12:22:56.854Z,577.00
2023-03-22T12:23:57.062Z,578.00
2023-03-22T12:24:56.873Z,577.00
2023-03-22T12:25:56.951Z,577.00
2023-03-22T12:26:57.567Z,577.00
2023-03-22T12:27:56.946Z,576.00
2023-03-22T12:28:57.081Z,578.00
2023-03-22T12:29:56.962Z,577.00
2023-03-22T12:30:57.006Z,585.00
2023-03-22T12:31:57.332Z,652.00
2023-03-22T12:32:57.074Z,633.00
2023-03-22T12:33:57.620Z,628.00
2023-03-22T12:35:05.418Z,628.00
2023-03-22T12:35:58.084Z,625.00
2023-03-22T12:36:57.052Z,624.00
2023-03-22T12:37:57.060Z,624.00
2023-03-22T12:38:57.110Z,624.00
2023-03-22T12:39:57.052Z,625.00
2023-03-22T12:40:57.053Z,624.00
2023-03-22T12:41:57.019Z,623.00
2023-03-22T12:42:59.044Z,623.00
2023-03-22T12:43:56.998Z,624.00
2023-03-22T12:45:04.766Z,626.00
2023-03-22T12:45:58.020Z,626.00
2023-03-22T12:46:57.070Z,624.00
2023-03-22T12:47:57.166Z,623.00
2023-03-22T12:48:58.505Z,619.00
2023-03-22T12:49:56.981Z,616.00
2023-03-22T12:50:56.973Z,617.00
2023-03-22T12:51:56.980Z,619.00
2023-03-22T12:52:57.156Z,619.00
2023-03-22T12:53:56.950Z,617.00
2023-03-22T12:54:56.916Z,613.00
2023-03-22T12:55:56.954Z,615.00
2023-03-22T12:56:56.922Z,614.00
2023-03-22T12:57:56.918Z,615.00
2023-03-22T12:58:56.899Z,617.00
2023-03-22T12:59:56.892Z,616.00
2023-03-22T13:00:56.906Z,612.00
2023-03-22T13:01:56.914Z,613.00
2023-03-22T13:02:56.962Z,612.00
2023-03-22T13:03:56.982Z,612.00
2023-03-22T13:04:56.912Z,613.00
2023-03-22T13:05:56.870Z,612.00
2023-03-22T13:06:56.937Z,613.00
2023-03-22T13:07:56.884Z,613.00
2023-03-22T13:08:56.904Z,614.00
2023-03-22T13:09:56.910Z,613.00
2023-03-22T13:10:56.895Z,610.00
2023-03-22T13:11:56.954Z,609.00
2023-03-22T13:12:56.967Z,606.00
2023-03-22T13:13:56.962Z,605.00
2023-03-22T13:14:56.993Z,604.00
2023-03-22T13:15:57.037Z,605.00
2023-03-22T13:16:57.087Z,603.00
2023-03-22T13:17:57.097Z,600.00
2023-03-22T13:18:57.088Z,600.00
2023-03-22T13:19:57.098Z,600.00
2023-03-22T13:20:57.099Z,602.00
2023-03-22T13:21:57.117Z,605.00
2023-03-22T13:22:57.145Z,604.00
2023-03-22T13:23:57.201Z,604.00
2023-03-22T13:24:57.180Z,604.00
2023-03-22T13:25:57.223Z,604.00
2023-03-22T13:26:57.254Z,604.00
2023-03-22T13:27:57.633Z,604.00
2023-03-22T13:28:57.289Z,602.00
2023-03-22T13:29:57.317Z,603.00
2023-03-22T13:30:57.320Z,602.00
2023-03-22T13:31:57.394Z,602.00
2023-03-22T13:32:57.374Z,598.00
2023-03-22T13:33:57.391Z,598.00
2023-03-22T13:34:57.426Z,598.00
2023-03-22T13:35:57.488Z,598.00
2023-03-22T13:36:57.432Z,596.00
2023-03-22T13:37:57.469Z,596.00
2023-03-22T13:38:57.517Z,594.00
2023-03-22T13:39:57.534Z,589.00
2023-03-22T13:40:57.531Z,588.00
2023-03-22T13:41:57.564Z,587.00
2023-03-22T13:42:57.578Z,587.00
2023-03-22T13:43:57.567Z,586.00
2023-03-22T13:44:57.609Z,583.00
2023-03-22T13:45:57.684Z,579.00
2023-03-22T13:46:57.651Z,576.00
2023-03-22T13:47:57.798Z,576.00
2023-03-22T14:46:30.733Z,564.00
2023-03-22T14:47:30.574Z,556.00
2023-03-22T14:48:30.557Z,555.00
2023-03-22T14:49:30.553Z,556.00
2023-03-22T14:52:30.559Z,557.00
2023-03-22T14:53:30.570Z,555.00
2023-03-22T14:55:30.508Z,551.00
2023-03-22T14:56:30.525Z,553.00
2023-03-22T14:59:30.501Z,550.00
2023-03-22T15:03:30.444Z,548.00
2023-03-22T15:04:30.455Z,550.00
2023-03-22T15:05:30.437Z,553.00
2023-03-22T15:06:30.466Z,556.00
2023-03-22T15:07:30.418Z,555.00
2023-03-22T15:12:30.393Z,549.00
2023-03-22T15:13:30.375Z,544.00
2023-03-22T15:14:30.427Z,542.00
2023-03-22T15:15:30.795Z,541.00
2023-03-22T15:16:30.389Z,541.00
2023-03-22T15:17:30.348Z,540.00
2023-03-22T15:18:30.366Z,539.00
2023-03-22T15:20:30.797Z,538.00
2023-03-22T15:21:30.315Z,537.00
2023-03-22T15:22:30.341Z,543.00
2023-03-22T15:28:30.260Z,555.00
2023-03-22T15:29:30.278Z,554.00
2023-03-22T15:31:30.274Z,554.00
2023-03-22T15:37:30.217Z,554.00
2023-03-22T15:42:30.184Z,553.00
2023-03-22T15:45:30.147Z,549.00
2023-03-22T15:46:30.142Z,548.00
2023-03-22T15:59:30.012Z,546.00
2023-03-22T16:00:30.045Z,546.00
2023-03-22T16:01:30.115Z,545.00
2023-03-22T16:02:30.113Z,545.00
2023-03-22T16:03:30.195Z,542.00
2023-03-22T16:04:30.158Z,542.00
2023-03-22T16:05:30.200Z,543.00
2023-03-22T16:06:30.210Z,543.00
2023-03-22T16:07:30.266Z,545.00
2023-03-22T16:08:30.293Z,548.00
2023-03-22T16:09:30.327Z,548.00
2023-03-22T16:10:30.380Z,546.00
2023-03-22T16:11:30.404Z,546.00
2023-03-22T16:12:30.387Z,544.00
2023-03-22T16:13:30.436Z,541.00
2023-03-22T16:14:30.444Z,539.00
2023-03-22T16:15:30.487Z,539.00
2023-03-22T16:16:30.558Z,537.00
2023-03-22T16:17:30.578Z,538.00
2023-03-22T16:18:30.600Z,539.00
2023-03-22T16:19:30.616Z,539.00
2023-03-22T16:20:30.698Z,538.00
2023-03-22T16:21:30.692Z,541.00
2023-03-22T16:22:30.721Z,541.00
2023-03-22T16:25:30.784Z,543.00
2023-03-22T16:26:30.837Z,543.00
2023-03-22T16:27:30.849Z,543.00
2023-03-22T16:28:30.902Z,546.00
2023-03-22T16:29:30.916Z,543.00
2023-03-22T16:30:30.970Z,541.00
2023-03-22T16:31:30.948Z,540.00
2023-03-22T16:32:31.041Z,539.00
2023-03-22T16:35:31.096Z,536.00
2023-03-22T16:36:31.188Z,537.00
2023-03-22T16:42:32.995Z,540.00
2023-03-22T16:43:31.352Z,540.00
2023-03-22T16:44:31.368Z,539.00
2023-03-22T16:45:31.388Z,535.00
2023-03-22T16:46:31.507Z,535.00
2023-03-22T16:47:31.467Z,535.00
2023-03-22T16:48:33.163Z,532.00
2023-03-22T16:49:31.520Z,533.00
2023-03-22T16:50:31.572Z,532.00
2023-03-22T16:51:31.603Z,530.00
2023-03-22T16:52:31.677Z,529.00
2023-03-22T16:53:40.380Z,530.00
2023-03-22T16:54:34.368Z,530.00
2023-03-22T16:55:31.644Z,530.00
2023-03-22T17:04:31.634Z,564.00
2023-03-22T17:13:31.539Z,548.00
2023-03-22T17:20:31.455Z,549.00
2023-03-22T17:21:31.487Z,549.00
2023-03-22T17:22:31.485Z,549.00
2023-03-22T17:34:31.617Z,542.00
2023-03-22T17:35:31.666Z,543.00
2023-03-22T17:36:31.666Z,544.00
2023-03-22T17:37:31.720Z,542.00
2023-03-22T17:38:37.696Z,540.00
2023-03-22T17:40:00.648Z,539.00
2023-03-22T17:45:51.394Z,539.00
2023-03-22T17:47:06.977Z,541.00
2023-03-22T17:47:41.156Z,540.00
2023-03-22T17:48:32.760Z,539.00
2023-03-22T17:51:31.687Z,541.00
2023-03-22T17:52:31.684Z,542.00
2023-03-22T17:54:24.200Z,540.00
2023-03-22T17:55:06.296Z,537.00
2023-03-22T17:56:01.251Z,536.00
2023-03-22T17:57:03.458Z,533.00
2023-03-22T18:00:31.636Z,532.00
2023-03-22T18:01:31.760Z,530.00
2023-03-22T18:03:31.597Z,528.00
2023-03-22T18:04:31.613Z,527.00
2023-03-22T18:07:32.035Z,527.00
2023-03-22T18:08:31.694Z,531.00
2023-03-22T18:11:31.540Z,531.00
2023-03-22T18:12:31.519Z,532.00
2023-03-22T18:13:31.984Z,532.00
2023-03-22T18:14:35.826Z,534.00
2023-03-22T18:15:32.500Z,534.00
2023-03-22T18:16:53.264Z,535.00
2023-03-22T18:17:32.513Z,531.00
2023-03-22T18:19:32.605Z,527.00
2023-03-22T18:23:31.429Z,530.00
2023-03-22T18:24:31.420Z,529.00
2023-03-22T18:27:39.249Z,522.00
2023-03-22T18:28:32.505Z,522.00
2023-03-22T18:29:31.517Z,522.00
2023-03-22T18:31:31.456Z,522.00
2023-03-22T18:32:48.645Z,522.00
2023-03-22T18:33:32.466Z,521.00
2023-03-22T18:34:31.454Z,522.00
2023-03-22T18:37:31.469Z,525.00
2023-03-22T18:39:07.198Z,526.00
2023-03-22T18:40:13.217Z,527.00
2023-03-22T18:44:31.413Z,525.00
2023-03-22T18:45:52.794Z,523.00
2023-03-22T18:46:32.426Z,522.00
2023-03-22T18:48:31.362Z,520.00
2023-03-22T18:50:31.331Z,517.00
2023-03-22T18:51:32.494Z,517.00
2023-03-22T18:52:46.226Z,518.00
2023-03-22T18:54:31.642Z,514.00
2023-03-22T18:57:32.369Z,515.00
2023-03-22T18:58:31.285Z,515.00
2023-03-22T18:59:31.287Z,515.00
2023-03-22T19:03:31.245Z,519.00
2023-03-22T19:05:31.215Z,518.00
2023-03-22T19:06:31.224Z,518.00
2023-03-22T19:11:31.199Z,514.00
2023-03-22T19:12:31.199Z,513.00
2023-03-22T19:15:44.876Z,510.00
2023-03-22T19:16:32.121Z,512.00
2023-03-22T19:17:31.136Z,512.00
2023-03-22T19:18:31.178Z,512.00
2023-03-22T19:19:31.143Z,513.00
2023-03-22T19:21:32.584Z,512.00
2023-03-22T19:25:31.232Z,513.00
2023-03-22T19:26:31.897Z,513.00
2023-03-22T19:27:32.375Z,514.00
2023-03-22T19:28:31.378Z,515.00
2023-03-22T19:29:31.459Z,515.00
2023-03-22T19:30:31.553Z,514.00
2023-03-22T19:31:31.596Z,513.00
2023-03-22T19:32:31.821Z,512.00
2023-03-22T19:33:45.665Z,512.00
2023-03-22T19:34:32.714Z,512.00
2023-03-22T19:36:31.741Z,513.00
2023-03-22T19:37:31.951Z,512.00
2023-03-22T19:42:36.609Z,507.00
2023-03-22T19:43:32.632Z,508.00
2023-03-22T19:44:31.637Z,510.00
2023-03-22T19:51:31.589Z,508.00
2023-03-22T19:52:31.604Z,508.00
2023-03-22T19:54:39.715Z,508.00
2023-03-22T19:55:32.648Z,509.00
2023-03-22T19:58:31.634Z,509.00
2023-03-22T20:01:31.616Z,508.00
2023-03-22T20:02:31.584Z,511.00
2023-03-22T20:03:31.586Z,509.00
2023-03-22T20:04:31.607Z,508.00
2023-03-22T20:05:34.933Z,507.00
2023-03-22T20:06:34.798Z,506.00
2023-03-22T20:09:31.555Z,509.00
2023-03-22T20:13:31.517Z,510.00
2023-03-22T20:15:31.500Z,509.00
2023-03-22T20:16:31.577Z,509.00
2023-03-22T20:21:31.460Z,511.00
2023-03-22T20:22:31.459Z,512.00
2023-03-22T20:23:31.482Z,512.00
2023-03-22T20:24:31.476Z,513.00
2023-03-22T20:25:31.435Z,514.00
2023-03-22T20:26:31.425Z,514.00
2023-03-22T20:27:31.453Z,513.00
2023-03-22T20:31:31.400Z,514.00
2023-03-22T20:32:31.386Z,513.00
2023-03-22T20:39:31.348Z,513.00
2023-03-22T20:40:31.370Z,514.00
2023-03-22T20:43:31.308Z,515.00
2023-03-22T20:46:31.285Z,513.00
2023-03-22T20:47:32.965Z,512.00
2023-03-22T20:48:31.316Z,515.00
2023-03-22T20:56:31.210Z,509.00
2023-03-22T20:57:31.221Z,509.00
2023-03-22T20:58:31.237Z,509.00
2023-03-22T20:59:31.205Z,509.00
2023-03-22T21:07:31.174Z,514.00
2023-03-22T21:11:31.145Z,511.00
2023-03-22T21:22:31.127Z,512.00
2023-03-22T21:24:31.055Z,511.00
2023-03-22T21:31:31.024Z,508.00
2023-03-22T21:32:31.003Z,508.00
2023-03-22T21:37:30.963Z,511.00
2023-03-22T21:40:30.956Z,509.00
2023-03-22T21:41:31.007Z,508.00
2023-03-22T21:42:30.974Z,509.00
2023-03-22T21:46:31.019Z,512.00
2023-03-22T21:47:31.040Z,510.00
2023-03-22T21:48:31.041Z,509.00
2023-03-22T21:49:31.097Z,511.00
2023-03-22T21:50:31.091Z,510.00
2023-03-22T21:53:31.079Z,514.00
2023-03-22T21:54:31.079Z,512.00
2023-03-22T21:55:31.118Z,511.00
2023-03-22T21:58:31.108Z,511.00
2023-03-22T21:59:31.113Z,510.00
2023-03-22T22:00:31.162Z,512.00
2023-03-22T22:01:31.154Z,511.00
2023-03-22T22:02:31.169Z,513.00
2023-03-22T22:03:31.184Z,512.00
2023-03-22T22:04:31.172Z,513.00
2023-03-22T22:05:31.205Z,515.00
2023-03-22T22:20:31.306Z,513.00
2023-03-22T22:21:31.328Z,512.00
2023-03-22T22:22:31.353Z,511.00
2023-03-22T22:28:31.403Z,516.00
2023-03-22T22:29:31.428Z,516.00
2023-03-22T22:30:31.432Z,515.00
2023-03-22T22:37:31.516Z,512.00
2023-03-22T22:38:31.558Z,512.00
2023-03-22T22:44:31.621Z,509.00
2023-03-22T22:45:31.710Z,507.00
2023-03-22T22:46:31.686Z,505.00
2023-03-22T22:47:31.728Z,507.00
2023-03-22T22:48:31.740Z,507.00
2023-03-22T23:07:32.026Z,508.00
2023-03-22T23:08:32.055Z,506.00
2023-03-22T23:09:32.077Z,504.00
2023-03-22T23:10:32.096Z,505.00
2023-03-22T23:11:32.112Z,503.00
2023-03-22T23:12:32.147Z,503.00
2023-03-22T23:13:32.176Z,506.00
2023-03-22T23:14:32.174Z,505.00
2023-03-22T23:15:32.210Z,504.00
2023-03-22T23:16:32.196Z,500.00
2023-03-22T23:17:32.207Z,499.00
2023-03-22T23:18:32.233Z,497.00
2023-03-22T23:19:32.978Z,499.00
2023-03-22T23:31:32.477Z,499.00
2023-03-22T23:32:32.522Z,499.00
2023-03-22T23:33:32.545Z,499.00
2023-03-22T23:34:32.543Z,501.00
2023-03-22T23:35:32.604Z,501.00
2023-03-22T23:36:32.671Z,501.00
2023-03-22T23:37:32.590Z,503.00
2023-03-22T23:38:32.638Z,500.00
2023-03-22T23:50:32.882Z,504.00
2023-03-22T23:51:32.912Z,505.00
2023-03-22T23:52:32.923Z,507.00
2023-03-22T23:53:32.983Z,507.00
2023-03-22T23:54:32.968Z,505.00
2023-03-22T23:55:32.977Z,506.00
2023-03-22T23:56:33.012Z,507.00
2023-03-22T23:57:33.025Z,506.00
2023-03-22T23:58:33.076Z,505.00
2023-03-22T23:59:33.083Z,507.00
